createdAt,value
2018-03-30T00:01:58.271Z,16.20
2018-03-30T00:04:25.901Z,15.67
2018-03-30T00:06:53.503Z,16.40
2018-03-30T00:09:32.909Z,16.33
2018-03-30T00:12:01.192Z,16.20
2018-03-30T00:14:28.927Z,16.30
2018-03-30T00:16:56.444Z,15.90
2018-03-30T00:19:23.957Z,15.17
2018-03-30T00:21:51.524Z,17.20
2018-03-30T00:24:19.079Z,15.97
2018-03-30T00:26:46.717Z,16.13
2018-03-30T00:29:15.005Z,15.43
2018-03-30T00:31:43.302Z,15.70
2018-03-30T00:34:10.830Z,16.33
2018-03-30T00:36:38.348Z,16.40
2018-03-30T00:39:05.880Z,16.47
2018-03-30T00:41:33.513Z,17.37
2018-03-30T00:44:01.784Z,15.90
2018-03-30T00:46:30.159Z,16.63
2018-03-30T00:48:57.679Z,32.20
2018-03-30T00:51:25.223Z,19.70
2018-03-30T00:53:52.754Z,21.37
2018-03-30T00:56:20.270Z,18.03
2018-03-30T00:58:47.902Z,16.70
2018-03-30T01:01:15.430Z,16.33
2018-03-30T01:03:42.959Z,16.47
2018-03-30T01:06:11.251Z,17.03
2018-03-30T01:08:38.766Z,15.23
2018-03-30T01:11:10.111Z,15.93
2018-03-30T01:13:37.659Z,17.17
2018-03-30T01:18:49.043Z,16.97
2018-03-30T01:21:23.247Z,15.63
2018-03-30T01:23:50.783Z,16.53
2018-03-30T01:26:19.082Z,16.60
2018-03-30T01:28:46.667Z,16.70
2018-03-30T01:31:14.211Z,21.63
2018-03-30T01:33:41.736Z,29.07
2018-03-30T01:36:09.256Z,50.07
2018-03-30T01:38:36.779Z,28.70
2018-03-30T01:41:04.365Z,19.00
2018-03-30T01:43:31.878Z,17.17
2018-03-30T01:46:00.163Z,16.53
2018-03-30T01:48:28.466Z,17.60
2018-03-30T01:50:56.061Z,16.80
2018-03-30T01:53:23.619Z,16.10
2018-03-30T01:55:51.214Z,17.03
2018-03-30T01:58:19.490Z,17.13
2018-03-30T02:00:47.789Z,17.00
2018-03-30T02:03:16.439Z,16.57
2018-03-30T02:05:44.717Z,16.93
2018-03-30T02:08:13.005Z,16.53
2018-03-30T02:10:41.287Z,18.73
2018-03-30T02:13:08.800Z,17.53
2018-03-30T02:15:36.386Z,17.37
2018-03-30T02:18:04.652Z,17.93
2018-03-30T02:20:32.942Z,18.67
2018-03-30T02:23:01.251Z,18.47
2018-03-30T02:25:28.768Z,17.83
2018-03-30T02:27:56.347Z,18.50
2018-03-30T02:30:24.593Z,18.37
2018-03-30T02:32:52.889Z,18.43
2018-03-30T02:35:21.190Z,18.13
2018-03-30T02:37:48.721Z,17.63
2018-03-30T02:40:17.109Z,20.93
2018-03-30T02:42:45.474Z,20.37
2018-03-30T02:45:13.028Z,19.57
2018-03-30T02:47:40.554Z,20.13
2018-03-30T02:50:08.657Z,20.17
2018-03-30T02:52:37.895Z,19.87
2018-03-30T02:55:05.402Z,19.87
2018-03-30T02:57:32.990Z,21.77
2018-03-30T03:00:02.203Z,21.57
2018-03-30T03:02:30.430Z,22.13
2018-03-30T03:04:57.938Z,21.50
2018-03-30T03:07:25.467Z,20.83
2018-03-30T03:09:53.742Z,22.63
2018-03-30T03:12:22.019Z,22.73
2018-03-30T03:14:50.314Z,21.83
2018-03-30T03:17:17.833Z,23.73
2018-03-30T03:19:45.352Z,22.63
2018-03-30T03:22:12.869Z,23.37
2018-03-30T03:24:41.148Z,23.50
2018-03-30T03:27:08.683Z,23.67
2018-03-30T03:29:36.272Z,24.53
2018-03-30T03:32:03.786Z,24.37
2018-03-30T03:34:31.319Z,24.13
2018-03-30T03:36:58.870Z,23.63
2018-03-30T03:39:26.383Z,24.93
2018-03-30T03:41:53.932Z,25.73
2018-03-30T03:44:21.653Z,24.70
2018-03-30T03:46:49.164Z,24.43
2018-03-30T03:49:16.691Z,25.90
2018-03-30T03:51:44.206Z,25.70
2018-03-30T03:54:11.727Z,25.37
2018-03-30T03:56:39.274Z,26.07
2018-03-30T03:59:06.755Z,25.33
2018-03-30T04:01:34.305Z,25.10
2018-03-30T04:04:01.812Z,25.60
2018-03-30T04:06:29.332Z,27.30
2018-03-30T04:08:56.889Z,27.33
2018-03-30T04:11:25.175Z,27.20
2018-03-30T04:13:53.460Z,27.77
2018-03-30T04:16:20.989Z,26.70
2018-03-30T04:18:48.519Z,26.70
2018-03-30T04:21:16.092Z,27.37
2018-03-30T04:23:43.650Z,26.17
2018-03-30T04:26:11.168Z,29.13
2018-03-30T04:28:38.675Z,27.47
2018-03-30T04:31:06.199Z,27.97
2018-03-30T04:33:33.709Z,28.37
2018-03-30T04:36:01.231Z,29.43
2018-03-30T04:38:28.828Z,28.67
2018-03-30T04:40:56.367Z,27.80
2018-03-30T04:43:23.900Z,29.20
2018-03-30T04:45:51.433Z,29.17
2018-03-30T04:48:19.048Z,28.33
2018-03-30T04:50:47.351Z,30.53
2018-03-30T04:53:14.875Z,29.10
2018-03-30T04:55:42.396Z,29.33
2018-03-30T04:58:09.906Z,28.93
2018-03-30T05:00:37.420Z,30.03
2018-03-30T05:03:04.934Z,28.50
2018-03-30T05:05:33.242Z,29.87
2018-03-30T05:08:01.532Z,29.10
2018-03-30T05:10:29.060Z,29.73
2018-03-30T05:12:56.579Z,29.37
2018-03-30T05:15:24.105Z,29.43
2018-03-30T05:17:51.641Z,29.23
2018-03-30T05:20:19.175Z,29.20
2018-03-30T05:22:47.451Z,28.90
2018-03-30T05:25:15.729Z,28.33
2018-03-30T05:27:44.006Z,30.67
2018-03-30T05:30:12.308Z,28.87
2018-03-30T05:32:39.812Z,28.13
2018-03-30T05:35:07.334Z,29.80
2018-03-30T05:37:34.867Z,30.63
2018-03-30T05:40:03.135Z,29.87
2018-03-30T05:42:31.423Z,27.87
2018-03-30T05:44:58.992Z,28.70
2018-03-30T05:47:26.526Z,29.07
2018-03-30T05:49:54.810Z,28.57
2018-03-30T05:52:22.337Z,29.07
2018-03-30T05:54:49.998Z,27.80
2018-03-30T05:57:19.153Z,25.73
2018-03-30T05:59:46.672Z,27.90
2018-03-30T06:02:14.983Z,27.07
2018-03-30T06:04:42.503Z,26.93
2018-03-30T06:07:10.026Z,27.37
2018-03-30T06:09:37.536Z,27.60
2018-03-30T06:12:05.804Z,27.57
2018-03-30T06:14:34.079Z,27.70
2018-03-30T06:17:02.693Z,25.80
2018-03-30T06:19:30.218Z,27.87
2018-03-30T06:21:58.526Z,27.17
2018-03-30T06:24:26.060Z,28.40
2018-03-30T06:26:53.610Z,26.17
2018-03-30T06:29:21.892Z,25.93
2018-03-30T06:31:50.170Z,26.13
2018-03-30T06:34:18.460Z,25.20
2018-03-30T06:36:45.973Z,27.20
2018-03-30T06:39:13.509Z,25.07
2018-03-30T06:41:41.152Z,26.53
2018-03-30T06:44:08.729Z,24.90
2018-03-30T06:46:36.239Z,24.67
2018-03-30T06:49:03.794Z,24.60
2018-03-30T06:51:32.088Z,25.70
2018-03-30T06:53:59.619Z,24.87
2018-03-30T06:56:27.896Z,24.30
2018-03-30T06:58:56.188Z,25.20
2018-03-30T07:01:24.473Z,24.87
2018-03-30T07:03:52.033Z,25.47
2018-03-30T07:06:19.542Z,25.17
2018-03-30T07:08:47.053Z,25.23
2018-03-30T07:11:14.568Z,23.77
2018-03-30T07:13:42.887Z,25.67
2018-03-30T07:16:11.237Z,24.40
2018-03-30T07:18:39.143Z,25.23
2018-03-30T07:21:06.890Z,24.60
2018-03-30T07:23:34.400Z,24.70
2018-03-30T07:26:01.936Z,24.20
2018-03-30T07:28:29.447Z,24.30
2018-03-30T07:30:57.057Z,23.53
2018-03-30T07:33:24.667Z,23.57
2018-03-30T07:35:52.989Z,24.27
2018-03-30T07:38:20.525Z,23.87
2018-03-30T07:40:48.028Z,23.97
2018-03-30T07:43:15.538Z,22.80
2018-03-30T07:45:43.085Z,22.93
2018-03-30T07:48:11.384Z,24.33
2018-03-30T07:50:38.916Z,24.30
2018-03-30T07:53:06.461Z,22.87
2018-03-30T07:55:33.978Z,23.97
2018-03-30T07:58:01.486Z,23.87
2018-03-30T08:00:29.030Z,22.83
2018-03-30T08:02:56.534Z,24.17
2018-03-30T08:05:24.044Z,24.53
2018-03-30T08:07:53.087Z,22.67
2018-03-30T08:10:20.625Z,23.50
2018-03-30T08:12:48.144Z,22.77
2018-03-30T08:15:16.070Z,24.83
2018-03-30T08:17:43.610Z,23.53
2018-03-30T08:20:11.897Z,22.50
2018-03-30T08:22:39.406Z,24.63
2018-03-30T08:25:07.100Z,22.87
2018-03-30T08:27:34.636Z,23.00
2018-03-30T08:30:02.156Z,23.10
2018-03-30T08:32:29.771Z,22.83
2018-03-30T08:34:58.151Z,22.03
2018-03-30T08:37:25.712Z,23.47
2018-03-30T08:39:53.973Z,22.50
2018-03-30T08:42:21.482Z,23.27
2018-03-30T08:44:49.000Z,23.50
2018-03-30T08:47:16.579Z,23.83
2018-03-30T08:49:44.088Z,23.67
2018-03-30T08:52:14.273Z,22.43
2018-03-30T08:54:41.787Z,22.87
2018-03-30T08:57:10.066Z,23.93
2018-03-30T08:59:37.566Z,24.17
2018-03-30T09:02:05.093Z,21.73
2018-03-30T09:04:33.367Z,23.40
2018-03-30T09:07:01.677Z,23.13
2018-03-30T09:09:29.193Z,22.53
2018-03-30T09:11:56.692Z,23.93
2018-03-30T09:14:24.207Z,22.10
2018-03-30T09:16:52.495Z,22.93
2018-03-30T09:19:20.773Z,21.73
2018-03-30T09:21:49.055Z,22.27
2018-03-30T09:24:17.328Z,23.50
2018-03-30T09:26:45.602Z,21.97
2018-03-30T09:29:13.870Z,22.03
2018-03-30T09:31:42.179Z,21.10
2018-03-30T09:34:09.747Z,20.77
2018-03-30T09:36:37.260Z,20.77
2018-03-30T09:39:05.536Z,21.03
2018-03-30T09:41:33.828Z,20.37
2018-03-30T09:44:02.136Z,20.97
2018-03-30T09:46:29.695Z,21.03
2018-03-30T09:48:57.227Z,19.83
2018-03-30T09:51:24.767Z,20.30
2018-03-30T09:53:52.292Z,21.20
2018-03-30T09:56:19.828Z,20.90
2018-03-30T09:58:47.385Z,20.80
2018-03-30T10:01:16.680Z,21.30
2018-03-30T10:03:51.624Z,21.70
2018-03-30T10:06:19.146Z,20.60
2018-03-30T10:08:46.669Z,20.87
2018-03-30T10:11:14.183Z,20.23
2018-03-30T10:13:41.715Z,20.13
2018-03-30T10:16:09.231Z,20.90
2018-03-30T10:18:36.750Z,20.83
2018-03-30T10:21:04.275Z,18.50
2018-03-30T10:23:32.565Z,21.33
2018-03-30T10:26:00.847Z,21.47
2018-03-30T10:28:28.371Z,20.70
2018-03-30T10:30:55.870Z,19.57
2018-03-30T10:33:23.375Z,20.80
2018-03-30T10:35:50.882Z,21.03
2018-03-30T10:38:18.416Z,21.47
2018-03-30T10:40:45.918Z,19.97
2018-03-30T10:43:13.445Z,20.63
2018-03-30T10:45:41.730Z,21.93
2018-03-30T10:48:09.248Z,20.40
2018-03-30T10:50:36.777Z,21.53
2018-03-30T10:53:04.285Z,20.97
2018-03-30T10:55:32.582Z,20.80
2018-03-30T10:58:00.094Z,20.83
2018-03-30T11:00:27.672Z,21.03
2018-03-30T11:02:55.184Z,21.77
2018-03-30T11:05:22.768Z,22.47
2018-03-30T11:07:50.256Z,21.60
2018-03-30T11:10:18.529Z,21.33
2018-03-30T11:12:46.808Z,21.87
2018-03-30T11:15:15.092Z,21.57
2018-03-30T11:17:43.371Z,21.60
2018-03-30T11:20:11.631Z,21.27
2018-03-30T11:22:39.904Z,22.43
2018-03-30T11:25:09.983Z,22.23
2018-03-30T11:27:37.630Z,23.43
2018-03-30T11:30:05.150Z,21.33
2018-03-30T11:32:33.426Z,22.33
2018-03-30T11:35:01.701Z,22.07
2018-03-30T11:37:30.085Z,23.57
2018-03-30T11:39:58.434Z,22.13
2018-03-30T11:42:25.947Z,23.23
2018-03-30T11:44:53.456Z,21.97
2018-03-30T11:47:21.852Z,22.40
2018-03-30T11:49:50.122Z,21.70
2018-03-30T11:52:18.745Z,22.47
2018-03-30T11:54:46.260Z,22.77
2018-03-30T11:57:13.770Z,22.63
2018-03-30T11:59:41.288Z,23.73
2018-03-30T12:02:08.801Z,22.60
2018-03-30T12:04:36.334Z,21.53
2018-03-30T12:07:03.860Z,19.83
2018-03-30T12:09:31.391Z,22.10
2018-03-30T12:11:58.930Z,21.53
2018-03-30T12:14:26.551Z,22.23
2018-03-30T12:16:54.103Z,22.43
2018-03-30T12:19:22.402Z,22.10
2018-03-30T12:21:49.920Z,22.27
2018-03-30T12:24:18.227Z,24.40
2018-03-30T12:26:45.757Z,22.90
2018-03-30T12:29:13.353Z,21.83
2018-03-30T12:31:40.900Z,21.37
2018-03-30T12:34:08.442Z,22.87
2018-03-30T12:36:35.969Z,21.80
2018-03-30T12:39:03.489Z,23.23
2018-03-30T12:41:30.994Z,22.23
2018-03-30T12:44:00.009Z,22.80
2018-03-30T12:46:27.568Z,23.03
2018-03-30T12:48:55.112Z,22.30
2018-03-30T12:51:22.659Z,21.03
2018-03-30T12:53:50.965Z,20.03
2018-03-30T12:56:18.488Z,19.70
2018-03-30T12:58:46.031Z,20.67
2018-03-30T13:01:13.559Z,20.37
2018-03-30T13:03:41.124Z,21.27
2018-03-30T13:06:09.701Z,21.70
2018-03-30T13:08:37.964Z,21.07
2018-03-30T13:11:05.480Z,21.43
2018-03-30T13:13:33.001Z,20.23
2018-03-30T13:16:01.288Z,20.67
2018-03-30T13:18:29.012Z,22.40
2018-03-30T13:20:56.540Z,21.23
2018-03-30T13:23:24.059Z,21.53
2018-03-30T13:25:51.702Z,20.40
2018-03-30T13:28:20.006Z,20.07
2018-03-30T13:30:47.520Z,19.67
2018-03-30T13:33:15.055Z,19.97
2018-03-30T13:35:42.621Z,19.10
2018-03-30T13:38:10.141Z,18.70
2018-03-30T13:40:37.675Z,18.07
2018-03-30T13:43:05.964Z,19.07
2018-03-30T13:45:33.512Z,18.93
2018-03-30T13:48:01.027Z,18.70
2018-03-30T13:50:44.210Z,19.13
2018-03-30T13:53:12.633Z,20.00
2018-03-30T13:55:41.299Z,18.30
2018-03-30T13:58:10.620Z,17.53
2018-03-30T14:00:42.702Z,18.03
2018-03-30T14:03:10.236Z,16.93
2018-03-30T14:05:43.454Z,17.80
2018-03-30T14:08:15.260Z,17.97
2018-03-30T14:10:46.763Z,18.30
2018-03-30T14:13:14.299Z,17.17
2018-03-30T14:18:43.700Z,17.23
2018-03-30T14:21:12.141Z,16.33
2018-03-30T14:23:40.435Z,14.77
2018-03-30T14:26:15.648Z,15.97
2018-03-30T14:28:46.579Z,14.37
2018-03-30T14:31:17.576Z,13.07
2018-03-30T14:33:45.305Z,13.10
2018-03-30T14:36:21.234Z,12.77
2018-03-30T14:38:56.146Z,11.27
2018-03-30T14:41:23.676Z,10.20
2018-03-30T14:43:53.687Z,10.67
2018-03-30T14:46:42.667Z,10.70
2018-03-30T14:49:13.813Z,10.30
2018-03-30T14:51:44.889Z,10.30
2018-03-30T14:54:17.876Z,10.40
2018-03-30T14:56:45.421Z,11.03
2018-03-30T14:59:16.391Z,10.33
2018-03-30T15:01:53.880Z,10.60
2018-03-30T15:04:32.115Z,11.23
2018-03-30T15:07:02.582Z,11.63
2018-03-30T15:09:36.000Z,12.70
2018-03-30T15:12:12.064Z,11.10
2018-03-30T15:14:40.401Z,11.50
2018-03-30T15:17:32.697Z,11.57
2018-03-30T15:20:04.663Z,10.93
2018-03-30T15:22:51.758Z,11.10
2018-03-30T15:25:24.801Z,11.57
2018-03-30T15:27:55.087Z,11.37
2018-03-30T15:30:36.294Z,11.37
2018-03-30T15:33:06.635Z,10.93
2018-03-30T15:35:34.181Z,11.57
2018-03-30T15:38:02.475Z,10.53
2018-03-30T15:40:30.717Z,11.13
2018-03-30T15:42:59.853Z,10.97
2018-03-30T15:45:44.938Z,10.90
2018-03-30T15:48:12.490Z,11.57
2018-03-30T15:50:40.798Z,10.17
2018-03-30T15:53:23.073Z,11.27
2018-03-30T15:55:51.371Z,11.57
2018-03-30T15:58:18.903Z,10.73
2018-03-30T16:00:47.218Z,10.27
2018-03-30T16:03:14.774Z,10.70
2018-03-30T16:05:42.292Z,10.50
2018-03-30T16:08:09.820Z,10.20
2018-03-30T16:10:41.981Z,10.90
2018-03-30T16:13:09.509Z,11.03
2018-03-30T16:15:37.010Z,11.07
2018-03-30T16:18:04.560Z,10.50
2018-03-30T16:20:31.591Z,10.77
2018-03-30T16:22:58.638Z,10.63
2018-03-30T16:25:25.660Z,10.40
2018-03-30T16:27:52.707Z,10.80
2018-03-30T16:30:19.740Z,10.07
2018-03-30T16:32:47.526Z,10.73
2018-03-30T16:35:14.552Z,9.73
2018-03-30T16:37:41.564Z,9.63
2018-03-30T16:40:08.578Z,9.57
2018-03-30T16:42:35.636Z,9.73
2018-03-30T16:45:02.652Z,9.90
2018-03-30T16:47:29.684Z,10.27
2018-03-30T16:49:57.466Z,9.40
2018-03-30T16:52:24.567Z,10.03
2018-03-30T16:54:51.613Z,10.33
2018-03-30T16:57:18.671Z,11.93
2018-03-30T16:59:45.711Z,11.57
2018-03-30T17:02:12.723Z,12.33
2018-03-30T17:04:39.762Z,12.00
2018-03-30T17:07:06.811Z,12.40
2018-03-30T17:09:33.851Z,12.60
2018-03-30T17:12:00.893Z,13.07
2018-03-30T17:14:27.947Z,12.20
2018-03-30T17:16:54.992Z,11.90
2018-03-30T17:19:22.013Z,15.00
2018-03-30T17:21:49.798Z,15.33
2018-03-30T17:24:16.855Z,13.73
2018-03-30T17:26:43.902Z,12.90
2018-03-30T17:29:11.020Z,13.27
2018-03-30T17:31:38.859Z,13.10
2018-03-30T17:34:05.896Z,13.03
2018-03-30T17:36:33.010Z,13.10
2018-03-30T17:39:00.085Z,12.73
2018-03-30T17:41:27.884Z,13.43
2018-03-30T17:43:55.668Z,14.43
2018-03-30T17:46:22.708Z,13.87
2018-03-30T17:48:50.514Z,14.00
2018-03-30T17:51:17.559Z,13.97
2018-03-30T17:53:44.658Z,13.80
2018-03-30T17:56:12.577Z,13.47
2018-03-30T17:58:39.649Z,14.47
2018-03-30T18:01:06.703Z,13.27
2018-03-30T18:03:33.847Z,14.03
2018-03-30T18:06:00.895Z,13.97
2018-03-30T18:08:27.980Z,14.00
2018-03-30T18:10:55.010Z,13.97
2018-03-30T18:13:22.193Z,14.97
2018-03-30T18:15:49.221Z,15.17
2018-03-30T18:18:16.249Z,13.83
2018-03-30T18:20:44.070Z,13.93
2018-03-30T18:23:11.132Z,12.70
2018-03-30T18:25:38.171Z,14.13
2018-03-30T18:28:05.202Z,14.80
2018-03-30T18:30:32.233Z,15.10
2018-03-30T18:32:59.268Z,17.77
2018-03-30T18:35:27.065Z,16.63
2018-03-30T18:37:54.116Z,15.80
2018-03-30T18:40:21.181Z,15.37
2018-03-30T18:42:48.227Z,16.37
2018-03-30T18:45:15.473Z,15.50
2018-03-30T18:47:42.524Z,14.97
2018-03-30T18:50:10.355Z,15.43
2018-03-30T18:52:37.432Z,15.10
2018-03-30T18:55:04.476Z,14.80
2018-03-30T18:57:31.523Z,14.57
2018-03-30T18:59:58.594Z,15.13
2018-03-30T19:02:25.647Z,14.27
2018-03-30T19:04:52.692Z,13.93
2018-03-30T19:07:19.761Z,13.77
2018-03-30T19:09:47.451Z,14.67
2018-03-30T19:12:14.506Z,14.53
2018-03-30T19:14:41.581Z,13.83
2018-03-30T19:17:08.646Z,14.53
2018-03-30T19:19:35.715Z,13.60
2018-03-30T19:22:03.580Z,14.07
2018-03-30T19:24:30.659Z,14.23
2018-03-30T19:26:57.748Z,13.57
2018-03-30T19:29:24.817Z,12.90
2018-03-30T19:31:51.865Z,14.07
2018-03-30T19:34:18.928Z,13.73
2018-03-30T19:36:45.999Z,13.47
2018-03-30T19:39:13.076Z,13.60
2018-03-30T19:41:40.164Z,13.70
2018-03-30T19:44:07.985Z,13.30
2018-03-30T19:46:35.065Z,13.17
2018-03-30T19:49:02.159Z,14.00
2018-03-30T19:51:29.982Z,13.00
2018-03-30T19:53:58.094Z,13.03
2018-03-30T19:56:25.153Z,14.20
2018-03-30T19:58:52.247Z,12.43
2018-03-30T20:01:19.333Z,12.10
2018-03-30T20:03:46.364Z,14.07
2018-03-30T20:06:13.394Z,15.13
2018-03-30T20:08:40.496Z,13.77
2018-03-30T20:11:07.516Z,12.73
2018-03-30T20:13:34.588Z,12.93
2018-03-30T20:16:02.760Z,12.90
2018-03-30T20:18:29.859Z,13.07
2018-03-30T20:20:57.712Z,12.73
2018-03-30T20:23:24.786Z,12.20
2018-03-30T20:25:51.864Z,12.37
2018-03-30T20:28:18.948Z,12.17
2018-03-30T20:30:46.774Z,12.03
2018-03-30T20:33:13.849Z,12.13
2018-03-30T20:35:41.478Z,11.70
2018-03-30T20:38:08.549Z,11.63
2018-03-30T20:40:35.649Z,11.17
2018-03-30T20:43:02.686Z,11.07
2018-03-30T20:45:31.146Z,11.20
2018-03-30T20:47:59.042Z,11.30
2018-03-30T20:50:26.178Z,11.00
2018-03-30T20:52:53.226Z,11.00
2018-03-30T20:55:20.295Z,10.57
2018-03-30T20:57:47.360Z,10.40
2018-03-30T21:00:14.472Z,10.07
2018-03-30T21:02:41.645Z,11.20
2018-03-30T21:05:09.277Z,11.13
2018-03-30T21:07:36.335Z,10.60
2018-03-30T21:10:03.374Z,10.87
2018-03-30T21:12:30.422Z,10.53
2018-03-30T21:14:58.252Z,10.40
2018-03-30T21:17:26.404Z,10.70
2018-03-30T21:19:53.384Z,11.00
2018-03-30T21:22:20.429Z,14.07
2018-03-30T21:24:47.460Z,11.50
2018-03-30T21:27:14.501Z,10.90
2018-03-30T21:29:41.528Z,11.13
2018-03-30T21:32:08.566Z,9.93
2018-03-30T21:34:35.610Z,10.97
2018-03-30T21:37:02.645Z,10.20
2018-03-30T21:39:29.745Z,10.27
2018-03-30T21:41:57.240Z,10.47
2018-03-30T21:44:24.272Z,9.80
2018-03-30T21:46:51.305Z,9.90
2018-03-30T21:49:18.323Z,10.50
2018-03-30T21:51:45.364Z,9.93
2018-03-30T21:54:12.397Z,9.93
2018-03-30T21:56:39.478Z,9.73
2018-03-30T21:59:06.517Z,9.80
2018-03-30T22:01:35.719Z,8.97
2018-03-30T22:04:02.747Z,9.23
2018-03-30T22:06:29.782Z,9.57
2018-03-30T22:08:56.798Z,10.10
2018-03-30T22:11:23.827Z,9.37
2018-03-30T22:13:50.841Z,9.43
2018-03-30T22:16:17.874Z,8.87
2018-03-30T22:18:44.912Z,9.07
2018-03-30T22:21:12.025Z,9.23
2018-03-30T22:23:39.057Z,8.90
2018-03-30T22:26:06.090Z,8.90
2018-03-30T22:28:33.103Z,8.23
2018-03-30T22:31:01.491Z,8.80
2018-03-30T22:33:28.576Z,7.47
2018-03-30T22:35:55.610Z,7.97
2018-03-30T22:38:22.619Z,7.40
2018-03-30T22:40:49.654Z,7.40
2018-03-30T22:43:16.674Z,8.13
2018-03-30T22:45:44.445Z,7.70
2018-03-30T22:48:12.247Z,7.30
2018-03-30T22:50:39.266Z,7.07
2018-03-30T22:53:06.305Z,7.97
2018-03-30T22:55:33.320Z,7.90
2018-03-30T22:58:00.347Z,7.63
2018-03-30T23:00:27.375Z,7.27
2018-03-30T23:02:54.410Z,7.30
2018-03-30T23:05:21.435Z,6.77
2018-03-30T23:07:49.210Z,6.83
2018-03-30T23:10:16.262Z,7.17
2018-03-30T23:12:43.287Z,6.90
2018-03-30T23:15:10.310Z,7.60
2018-03-30T23:17:37.349Z,6.97
2018-03-30T23:20:05.292Z,7.03
2018-03-30T23:22:32.309Z,7.73
2018-03-30T23:24:59.337Z,7.30
2018-03-30T23:27:26.357Z,7.13
2018-03-30T23:29:53.383Z,7.47
2018-03-30T23:32:20.386Z,7.90
2018-03-30T23:34:48.199Z,6.53
2018-03-30T23:37:16.626Z,7.93
2018-03-30T23:39:43.652Z,7.63
2018-03-30T23:42:10.722Z,8.13
2018-03-30T23:44:37.764Z,7.70
2018-03-30T23:47:05.581Z,7.60
2018-03-30T23:49:32.619Z,7.63
2018-03-30T23:51:59.695Z,7.90
2018-03-30T23:54:26.719Z,8.00
2018-03-30T23:56:54.559Z,7.53
2018-03-30T23:59:21.579Z,7.77
